ADDS METAR Data INFO
IDs: Format: Raw Decoded Include TAF

Data at: 1612 UTC 14 Aug 2018

KPWG 141556Z AUTO 20013G20KT 10SM CLR 32/21 A2999 RMK AO2 SLP157 T03170211
KPWG 141521Z AUTO 20014KT 10SM FEW022 29/22 A2999 RMK AO2
KPWG 141456Z AUTO 19011KT 10SM BKN022 28/22 A2999 RMK AO2 SLP158 T02830222 51003
KPWG 141444Z AUTO 19010KT 10SM BKN022 28/22 A2999 RMK AO2
KPWG 141356Z AUTO 18010G21KT 10SM FEW018 27/22 A2999 RMK AO2 SLP157 T02720222
KPWG 141256Z AUTO 18006KT 10SM CLR 24/23 A2999 RMK AO2 SLP158 T02440228
KPWG 141156Z AUTO 18009KT 10SM CLR 24/23 A2998 RMK AO2 SLP154 70001 T02390228 10267 20239 51007
KPWG 141147Z AUTO 17009KT 10SM FEW021 24/23 A2998 RMK AO2
KPWG 141112Z AUTO 18008KT 10SM BKN019 24/23 A2998 RMK AO2
KPWG 141056Z AUTO 18010KT 10SM SCT015 24/22 A2997 RMK AO2 SLP150 T02440222
KPWG 141027Z AUTO 17007KT 10SM FEW017 24/22 A2996 RMK AO2
KPWG 140956Z AUTO 17010KT 10SM BKN017 24/23 A2996 RMK AO2 SLP147 T02440228
KPWG 140916Z AUTO 17008KT 10SM BKN017 25/23 A2997 RMK AO2
KPWG 140856Z AUTO 17008KT 10SM SCT017 25/23 A2997 RMK AO2 SLP149 T02500228 51001
KPWG 140756Z AUTO 17009KT 10SM CLR 26/22 A2996 RMK AO2 SLP147 T02560222
KPWG 140656Z AUTO 17009G16KT 10SM CLR 26/22 A2997 RMK AO2 SLP151 T02610217
KPWG 140556Z AUTO 16010KT 10SM CLR 27/21 A2996 RMK AO2 SLP148 T02670206 10333 20267 403500228 53014
KPWG 140456Z AUTO 16013KT 10SM CLR 27/19 A2995 RMK AO2 SLP143 T02720194
KPWG 140356Z AUTO 16014KT 10SM CLR 28/18 A2993 RMK AO2 SLP138 T02830178
KPWG 140256Z AUTO 16012KT 10SM CLR 29/18 A2992 RMK AO2 SLP135 T02890183 53003
KPWG 140156Z AUTO 17009KT 10SM CLR 29/18 A2992 RMK AO2 SLP134 T02940178
KPWG 140056Z AUTO 16012KT 10SM FEW080 32/18 A2991 RMK AO2 SLP132 T03170178
KPWG 132356Z AUTO 17015KT 10SM CLR 33/18 A2991 RMK AO2 SLP130 T03330183 10350 20311 58013
KPWG 132256Z AUTO 19010G17KT 10SM CLR 34/19 A2993 RMK AO2 SLP136 T03390189
KPWG 132156Z AUTO 18017G22KT 10SM CLR 34/18 A2995 RMK AO2 SLP142 T03440183
KPWG 132056Z AUTO 17019G24KT 10SM SCT065 33/19 A2995 RMK AO2 SLP144 T03330194 56018
KPWG 131956Z AUTO 19015G25KT 10SM BKN060 34/19 A2997 RMK AO2 PK WND 17029/1924 SLP150 T03390194
KPWG 131856Z AUTO 17017G27KT 10SM BKN055 32/21 A2997 RMK AO2 PK WND 16028/1840 SLP152 T03220211
KPWG 131756Z AUTO 16019G24KT 10SM FEW045 32/22 A3000 RMK AO2 PK WND 17026/1731 SLP163 60001 T03170222 10322 20239 58010
KPWG 131656Z AUTO 18017G23KT 10SM BKN035 31/23 A3002 RMK AO2 SLP170 T03060228
KPWG 131639Z AUTO 17017G23KT 10SM BKN033 30/23 A3003 RMK AO2
KPWG 131556Z AUTO 17015G24KT 10SM BKN025 29/24 A3003 RMK AO2 SLP175 T02940239
KPWG 131456Z AUTO 17014KT 10SM SCT014 BKN020 28/24 A3004 RMK AO2 SLP175 P0001 60001 T02780244 51001
KPWG 131417Z AUTO 16009KT 10SM BKN010 OVC017 26/25 A3004 RMK AO2
KPWG 131356Z AUTO 16009KT 9SM OVC008 26/25 A3003 RMK AO2 CIG 006V012 SLP175 T02610250
KPWG 131326Z AUTO 16007KT 8SM OVC006 25/24 A3003 RMK AO2 CIG 005V012
KPWG 131256Z AUTO 16008KT 6SM BR OVC004 24/24 A3004 RMK AO2 SLP179 T02440244
KPWG 131156Z AUTO 15006KT 7SM OVC004 24/24 A3003 RMK AO2 CIG 003V009 SLP176 70166 T02390239 10239 20228 55002
KPWG 131128Z AUTO 15007KT 8SM BKN004 OVC012 23/23 A3003 RMK AO2 CIG 003V008
KPWG 131056Z AUTO 15007KT 9SM OVC006 23/23 A3003 RMK AO2 SLP176 T02330233
KPWG 131011Z AUTO 15008KT 10SM OVC008 23/23 A3002 RMK AO2 CIG 005V010
KPWG 130956Z AUTO 15008KT 10SM OVC010 23/23 A3003 RMK AO2 CIG 004V014 SLP174 T02330233
KPWG 130856Z AUTO 15007KT 10SM FEW005 OVC012 23/23 A3004 RMK AO2 SLP178 T02330228 58003
KPWG 130809Z AUTO 14005KT 10SM BKN005 OVC016 23/23 A3004 RMK AO2
KPWG 130756Z AUTO 14006KT 10SM SCT005 OVC018 23/23 A3004 RMK AO2 SLP178 T02280228
KPWG 130743Z AUTO 14007KT 10SM SCT007 BKN014 OVC020 23/23 A3005 RMK AO2
KPWG 130656Z AUTO 14005KT 10SM BKN007 23/23 A3005 RMK AO2 SLP179 T02280228
KPWG 130556Z AUTO 11005KT 10SM BKN007 OVC030 23/23 A3005 RMK AO2 CIG 005V010 SLP179 60001 T02330228 10233 20222 403170222 50002
KPWG 130456Z AUTO 10003KT 10SM OVC005 23/23 A3006 RMK AO2 SLP184 T02330228
KPWG 130449Z AUTO 11003KT 10SM OVC005 23/23 A3006 RMK AO2
KPWG 130422Z AUTO 00000KT 10SM BKN007 BKN049 23/23 A3005 RMK AO2